createdAt,value
2022-09-28T00:02:55.470Z,8.9
2022-09-28T00:07:53.354Z,8.8
2022-09-28T00:12:51.381Z,8.8
2022-09-28T00:17:49.459Z,8.8
2022-09-28T00:22:47.568Z,8.8
2022-09-28T00:27:45.717Z,8.6
2022-09-28T00:32:43.736Z,8.6
2022-09-28T00:37:41.720Z,8.5
2022-09-28T00:42:40.030Z,8.4
2022-09-28T00:47:38.246Z,8.4
2022-09-28T00:52:36.342Z,8.5
2022-09-28T00:57:34.510Z,8.4
2022-09-28T01:02:32.655Z,8.4
2022-09-28T01:07:30.592Z,8.4
2022-09-28T01:12:28.849Z,8.3
2022-09-28T01:17:27.391Z,8.2
2022-09-28T01:22:25.602Z,8.3
2022-09-28T01:27:23.897Z,8.2
2022-09-28T01:32:22.464Z,8.2
2022-09-28T01:37:20.504Z,8.2
2022-09-28T01:42:18.676Z,8.1
2022-09-28T01:47:16.726Z,8.1
2022-09-28T01:52:14.767Z,8
2022-09-28T01:57:12.840Z,8
2022-09-28T02:02:10.832Z,7.9
2022-09-28T02:07:08.719Z,7.8
2022-09-28T02:12:06.780Z,7.8
2022-09-28T02:17:04.846Z,7.7
2022-09-28T02:22:03.010Z,7.6
2022-09-28T02:27:01.099Z,7.6
2022-09-28T02:31:59.115Z,7.6
2022-09-28T02:36:57.330Z,7.6
2022-09-28T02:41:55.535Z,7.5
2022-09-28T02:46:53.336Z,7.5
2022-09-28T02:51:51.505Z,7.5
2022-09-28T02:56:49.750Z,7.6
2022-09-28T03:01:48.299Z,7.6
2022-09-28T03:06:46.447Z,7.7
2022-09-28T03:11:44.545Z,7.7
2022-09-28T03:16:42.888Z,7.7
2022-09-28T03:21:41.102Z,7.6
2022-09-28T03:26:39.083Z,7.5
2022-09-28T03:31:37.118Z,7.4
2022-09-28T03:36:38.429Z,7.2
2022-09-28T03:41:35.692Z,7.4
2022-09-28T03:46:33.780Z,7.4
2022-09-28T03:51:31.877Z,7.4
2022-09-28T03:56:29.941Z,7.4
2022-09-28T04:01:28.308Z,7.6
2022-09-28T04:06:26.466Z,7.9
2022-09-28T04:11:24.999Z,8.2
2022-09-28T04:16:23.421Z,8.4
2022-09-28T04:21:21.770Z,8.6
2022-09-28T04:26:20.044Z,8.7
2022-09-28T04:31:18.412Z,8.9
2022-09-28T04:36:16.739Z,9.3
2022-09-28T04:41:14.934Z,9.6
2022-09-28T04:46:13.276Z,10
2022-09-28T04:51:11.428Z,10.2
2022-09-28T04:56:09.501Z,10.1
2022-09-28T05:01:07.813Z,10.2
2022-09-28T05:06:05.963Z,10.2
2022-09-28T05:11:04.711Z,10.6
2022-09-28T05:16:05.526Z,11.7
2022-09-28T05:21:02.536Z,12.1
2022-09-28T05:26:00.720Z,12.4
2022-09-28T05:30:59.100Z,12.7
2022-09-28T05:36:00.999Z,13.7
2022-09-28T05:40:57.621Z,15.4
2022-09-28T05:45:56.069Z,15.1
2022-09-28T05:50:53.425Z,14.6
2022-09-28T05:55:51.183Z,14.3
2022-09-28T06:00:49.648Z,14.5
2022-09-28T06:05:48.642Z,16
2022-09-28T06:10:47.374Z,16.3
2022-09-28T06:15:45.157Z,15.9
2022-09-28T06:20:43.501Z,16.3
2022-09-28T06:25:43.894Z,18.4
2022-09-28T06:30:43.363Z,20.1
2022-09-28T06:35:42.756Z,21.6
2022-09-28T06:40:43.037Z,24.1
2022-09-28T06:45:39.325Z,21.8
2022-09-28T06:50:37.019Z,21.1
2022-09-28T06:55:33.752Z,19.7
2022-09-28T07:00:30.858Z,19.1
2022-09-28T07:05:30.400Z,23.6
2022-09-28T07:10:34.618Z,29.9
2022-09-28T07:15:34.053Z,30.3
2022-09-28T07:20:41.083Z,32.6
2022-09-28T07:25:33.935Z,35
2022-09-28T07:30:29.155Z,33.3
2022-09-28T07:35:30.018Z,36.7
2022-09-28T07:40:26.680Z,34.2
2022-09-28T07:45:25.230Z,35.1
2022-09-28T07:50:24.084Z,36.1
2022-09-28T07:55:21.751Z,36.6
2022-09-28T08:00:24.577Z,41.2
2022-09-28T08:05:20.748Z,38.5
2022-09-28T08:10:20.286Z,39.6
2022-09-28T08:15:14.912Z,36
2022-09-28T08:20:13.591Z,37
2022-09-28T08:25:09.828Z,34
2022-09-28T08:30:08.801Z,37.2
2022-09-28T08:35:09.769Z,39
2022-09-28T08:40:08.310Z,39.7
2022-09-28T08:45:06.694Z,40.3
2022-09-28T08:50:05.670Z,40.8
2022-09-28T08:55:04.268Z,41.2
2022-09-28T09:00:01.758Z,40.9
2022-09-28T09:04:59.676Z,40.8
2022-09-28T09:09:57.655Z,41.5
2022-09-28T09:14:55.257Z,41.1
2022-09-28T09:19:52.939Z,40.7
2022-09-28T09:24:51.264Z,41.2
2022-09-28T09:29:49.748Z,41.7
2022-09-28T09:34:47.639Z,42.2
2022-09-28T09:39:44.838Z,41.5
2022-09-28T09:44:43.241Z,41.8
2022-09-28T09:49:41.677Z,42.5
2022-09-28T09:54:40.011Z,42.5
2022-09-28T09:59:37.798Z,42.7
2022-09-28T10:04:35.560Z,42.6
2022-09-28T10:09:33.799Z,42.5
2022-09-28T10:14:31.690Z,42.3
2022-09-28T10:19:25.728Z,37.6
2022-09-28T10:24:21.890Z,38.6
2022-09-28T10:29:20.978Z,39.7
2022-09-28T10:34:19.798Z,37.7
2022-09-28T10:39:19.245Z,41.4
2022-09-28T10:44:17.306Z,39.7
2022-09-28T10:49:11.671Z,37.8
2022-09-28T10:54:09.203Z,36.2
2022-09-28T10:59:06.332Z,36.4
2022-09-28T11:04:06.543Z,36.9
2022-09-28T11:09:02.071Z,34.6
2022-09-28T11:13:59.383Z,32.6
2022-09-28T11:18:55.334Z,30.4
2022-09-28T11:23:51.625Z,29.3
2022-09-28T11:28:49.730Z,29.7
2022-09-28T11:33:51.546Z,37
2022-09-28T11:38:54.493Z,41.4
2022-09-28T11:43:52.950Z,42.2
2022-09-28T11:48:52.087Z,41.1
2022-09-28T11:53:47.836Z,41.2
2022-09-28T11:58:47.092Z,39.6
2022-09-28T12:03:43.482Z,36.8
2022-09-28T12:08:38.882Z,35.5
2022-09-28T12:13:35.172Z,33.5
2022-09-28T12:18:33.727Z,36.7
2022-09-28T12:23:32.597Z,36.2
2022-09-28T12:28:31.686Z,35.7
2022-09-28T12:33:26.718Z,32.2
2022-09-28T12:38:22.275Z,29.5
2022-09-28T12:43:20.941Z,33.3
2022-09-28T12:48:22.223Z,35.9
2022-09-28T12:53:19.684Z,34.8
2022-09-28T12:58:17.106Z,34.1
2022-09-28T13:03:14.155Z,32.3
2022-09-28T13:08:11.163Z,31
2022-09-28T13:13:08.984Z,30.9
2022-09-28T13:18:06.693Z,30.5
2022-09-28T13:23:04.542Z,30
2022-09-28T13:28:01.461Z,28.3
2022-09-28T13:32:59.365Z,27.7
2022-09-28T13:37:55.920Z,26
2022-09-28T13:42:52.958Z,25.2
2022-09-28T13:47:51.077Z,25.1
2022-09-28T13:52:49.631Z,24.6
2022-09-28T13:57:47.614Z,24.1
2022-09-28T14:02:45.843Z,23.9
2022-09-28T14:07:44.113Z,24.3
2022-09-28T14:12:43.405Z,25
2022-09-28T14:17:41.623Z,24.8
2022-09-28T14:22:39.775Z,24.6
2022-09-28T14:27:37.825Z,24.3
2022-09-28T14:32:35.996Z,24
2022-09-28T14:37:33.413Z,23.4
2022-09-28T14:42:30.987Z,22.8
2022-09-28T14:47:28.522Z,22.4
2022-09-28T14:52:26.104Z,21.9
2022-09-28T14:57:23.809Z,21.9
2022-09-28T15:02:22.229Z,22
2022-09-28T15:07:20.104Z,21.9
2022-09-28T15:12:18.256Z,21.6
2022-09-28T15:17:15.917Z,21.4
2022-09-28T15:22:13.668Z,21.1
2022-09-28T15:27:11.366Z,21
2022-09-28T15:32:09.198Z,20.8
2022-09-28T15:37:07.106Z,20.7
2022-09-28T15:42:04.709Z,19.9
2022-09-28T15:47:02.497Z,19.1
2022-09-28T15:52:00.370Z,18.6
2022-09-28T15:56:58.146Z,17.9
2022-09-28T16:01:55.972Z,17.8
2022-09-28T16:06:53.762Z,17.6
2022-09-28T16:11:51.943Z,17.4
2022-09-28T16:16:50.064Z,17.5
2022-09-28T16:21:48.336Z,17.2
2022-09-28T16:26:46.571Z,17.3
2022-09-28T16:31:44.833Z,17.3
2022-09-28T16:36:42.802Z,17.1
2022-09-28T16:41:41.274Z,17.1
2022-09-28T16:46:39.426Z,17.2
2022-09-28T16:51:37.538Z,17
2022-09-28T16:56:35.432Z,16.7
2022-09-28T17:01:33.281Z,16.6
2022-09-28T17:06:31.422Z,16.5
2022-09-28T17:11:29.378Z,16.3
2022-09-28T17:16:42.931Z,16.2
2022-09-28T17:21:25.253Z,15.9
2022-09-28T17:26:23.310Z,15.9
2022-09-28T17:31:21.540Z,15.9
2022-09-28T17:36:19.538Z,15.9
2022-09-28T17:41:20.334Z,15.9
2022-09-28T17:46:15.968Z,15.9
2022-09-28T17:51:14.090Z,15.8
2022-09-28T17:56:12.230Z,15.9
2022-09-28T18:01:10.330Z,15.9
2022-09-28T18:06:08.318Z,15.1
2022-09-28T18:11:06.397Z,15.8
2022-09-28T18:16:04.665Z,15.5
2022-09-28T18:21:02.389Z,15.3
2022-09-28T18:26:00.506Z,15.2
2022-09-28T18:30:58.364Z,15.1
2022-09-28T18:35:56.508Z,14.8
2022-09-28T18:40:54.844Z,14.7
2022-09-28T18:45:52.560Z,14.4
2022-09-28T18:50:50.772Z,14.2
2022-09-28T18:55:48.768Z,14.2
2022-09-28T19:00:46.872Z,14.1
2022-09-28T19:05:44.877Z,14.1
2022-09-28T19:10:42.897Z,14
2022-09-28T19:15:40.987Z,14.1
2022-09-28T19:20:39.230Z,14.2
2022-09-28T19:25:37.456Z,14.4
2022-09-28T19:30:35.610Z,14.4
2022-09-28T19:35:33.837Z,14.6
2022-09-28T19:40:32.159Z,14.7
2022-09-28T19:45:30.447Z,14.8
2022-09-28T19:50:28.458Z,14.7
2022-09-28T19:55:26.452Z,14.7
2022-09-28T20:00:24.524Z,14.6
2022-09-28T20:05:22.687Z,14.5
2022-09-28T20:10:20.857Z,14.5
2022-09-28T20:15:18.830Z,14.3
2022-09-28T20:20:16.867Z,14.4
2022-09-28T20:25:15.043Z,14.4
2022-09-28T20:30:13.180Z,14.5
2022-09-28T20:35:11.496Z,14.7
2022-09-28T20:40:09.862Z,14.8
2022-09-28T20:45:07.878Z,14.7
2022-09-28T20:50:05.838Z,14.6
2022-09-28T20:55:04.004Z,14.5
2022-09-28T21:00:01.945Z,14.4
2022-09-28T21:05:00.215Z,14.2
2022-09-28T21:09:58.306Z,14.3
2022-09-28T21:14:56.260Z,14.4
2022-09-28T21:19:54.189Z,14.4
2022-09-28T21:24:52.336Z,14.4
2022-09-28T21:29:50.727Z,14.6
2022-09-28T21:34:48.690Z,14.5
2022-09-28T21:39:46.788Z,14.5
2022-09-28T21:44:44.852Z,14.5
2022-09-28T21:49:42.887Z,14.6
2022-09-28T21:54:41.077Z,14.7
2022-09-28T21:59:39.289Z,14.6
2022-09-28T22:04:37.301Z,14.6
2022-09-28T22:09:35.273Z,14.6
2022-09-28T22:14:33.350Z,14.6
2022-09-28T22:19:31.241Z,14.5
2022-09-28T22:24:29.231Z,14.6
2022-09-28T22:29:27.491Z,14.5
2022-09-28T22:34:25.559Z,14.4
2022-09-28T22:39:26.134Z,14.2
2022-09-28T22:44:23.617Z,13.9
2022-09-28T22:49:21.319Z,13.7
2022-09-28T22:54:19.315Z,13.4
2022-09-28T22:59:17.082Z,13
2022-09-28T23:04:14.731Z,12.8
2022-09-28T23:09:12.594Z,12.5
2022-09-28T23:14:10.443Z,12.5
2022-09-28T23:19:08.433Z,12.4
2022-09-28T23:24:05.967Z,12.5
2022-09-28T23:29:04.185Z,12.6
2022-09-28T23:34:02.445Z,12.8
2022-09-28T23:39:00.324Z,12.8
2022-09-28T23:43:58.307Z,12.6
2022-09-28T23:48:56.349Z,12.4
2022-09-28T23:53:54.196Z,12.3
2022-09-28T23:58:52.211Z,12.1
